sensor_id;sensor_type;location;lat;lon;timestamp;P1;durP1;ratioP1;P2;durP2;ratioP2
84495;SDS011;74855;51.206;17.408;2023-12-14T00:02:52;27.97;;;13.70;;
84495;SDS011;74855;51.206;17.408;2023-12-14T00:07:48;32.88;;;15.48;;
84495;SDS011;74855;51.206;17.408;2023-12-14T00:12:43;30.70;;;14.47;;
84495;SDS011;74855;51.206;17.408;2023-12-14T00:17:38;29.17;;;13.70;;
84495;SDS011;74855;51.206;17.408;2023-12-14T00:22:35;33.97;;;15.93;;
84495;SDS011;74855;51.206;17.408;2023-12-14T00:27:30;26.95;;;13.73;;
84495;SDS011;74855;51.206;17.408;2023-12-14T00:32:26;27.30;;;13.25;;
84495;SDS011;74855;51.206;17.408;2023-12-14T00:37:21;32.17;;;14.37;;
84495;SDS011;74855;51.206;17.408;2023-12-14T00:42:18;31.07;;;14.70;;
84495;SDS011;74855;51.206;17.408;2023-12-14T00:47:13;31.67;;;15.05;;
84495;SDS011;74855;51.206;17.408;2023-12-14T00:52:08;28.88;;;14.45;;
84495;SDS011;74855;51.206;17.408;2023-12-14T00:57:04;27.37;;;14.43;;
84495;SDS011;74855;51.206;17.408;2023-12-14T01:02:01;27.63;;;12.77;;
84495;SDS011;74855;51.206;17.408;2023-12-14T01:06:56;27.75;;;12.27;;
84495;SDS011;74855;51.206;17.408;2023-12-14T01:11:51;26.47;;;13.47;;
84495;SDS011;74855;51.206;17.408;2023-12-14T01:16:46;26.13;;;12.70;;
84495;SDS011;74855;51.206;17.408;2023-12-14T01:21:43;26.08;;;13.38;;
84495;SDS011;74855;51.206;17.408;2023-12-14T01:26:38;28.08;;;13.63;;
84495;SDS011;74855;51.206;17.408;2023-12-14T01:31:34;27.00;;;13.23;;
84495;SDS011;74855;51.206;17.408;2023-12-14T01:36:29;26.23;;;12.27;;
84495;SDS011;74855;51.206;17.408;2023-12-14T01:41:26;31.45;;;13.95;;
84495;SDS011;74855;51.206;17.408;2023-12-14T01:46:21;31.00;;;13.55;;
84495;SDS011;74855;51.206;17.408;2023-12-14T01:51:16;25.90;;;11.27;;
84495;SDS011;74855;51.206;17.408;2023-12-14T01:56:12;27.33;;;12.27;;
84495;SDS011;74855;51.206;17.408;2023-12-14T02:01:13;21.77;;;9.77;;
84495;SDS011;74855;51.206;17.408;2023-12-14T02:06:11;23.83;;;10.70;;
84495;SDS011;74855;51.206;17.408;2023-12-14T02:11:06;22.65;;;11.23;;
84495;SDS011;74855;51.206;17.408;2023-12-14T02:16:02;23.23;;;10.60;;
84495;SDS011;74855;51.206;17.408;2023-12-14T02:20:59;23.60;;;11.63;;
84495;SDS011;74855;51.206;17.408;2023-12-14T02:25:55;25.02;;;11.05;;
84495;SDS011;74855;51.206;17.408;2023-12-14T02:30:51;24.65;;;12.48;;
84495;SDS011;74855;51.206;17.408;2023-12-14T02:35:47;25.70;;;11.07;;
84495;SDS011;74855;51.206;17.408;2023-12-14T02:40:42;21.52;;;10.25;;
84495;SDS011;74855;51.206;17.408;2023-12-14T02:45:39;26.07;;;11.50;;
84495;SDS011;74855;51.206;17.408;2023-12-14T02:50:34;23.60;;;12.00;;
84495;SDS011;74855;51.206;17.408;2023-12-14T02:55:35;26.90;;;13.45;;
84495;SDS011;74855;51.206;17.408;2023-12-14T03:00:31;28.20;;;11.35;;
84495;SDS011;74855;51.206;17.408;2023-12-14T03:05:27;28.53;;;12.70;;
84495;SDS011;74855;51.206;17.408;2023-12-14T03:10:23;26.38;;;11.23;;
84495;SDS011;74855;51.206;17.408;2023-12-14T03:15:18;27.10;;;11.83;;
84495;SDS011;74855;51.206;17.408;2023-12-14T03:20:13;24.03;;;11.67;;
84495;SDS011;74855;51.206;17.408;2023-12-14T03:25:13;24.93;;;11.00;;
84495;SDS011;74855;51.206;17.408;2023-12-14T03:30:08;28.88;;;12.20;;
84495;SDS011;74855;51.206;17.408;2023-12-14T03:35:04;24.55;;;10.43;;
84495;SDS011;74855;51.206;17.408;2023-12-14T03:39:59;29.17;;;12.80;;
84495;SDS011;74855;51.206;17.408;2023-12-14T03:44:56;29.37;;;11.93;;
84495;SDS011;74855;51.206;17.408;2023-12-14T03:49:52;28.52;;;11.25;;
84495;SDS011;74855;51.206;17.408;2023-12-14T03:54:47;26.63;;;10.90;;
84495;SDS011;74855;51.206;17.408;2023-12-14T03:59:42;29.65;;;11.70;;
84495;SDS011;74855;51.206;17.408;2023-12-14T04:04:39;27.23;;;12.57;;
84495;SDS011;74855;51.206;17.408;2023-12-14T04:09:34;28.83;;;11.60;;
84495;SDS011;74855;51.206;17.408;2023-12-14T04:14:31;28.50;;;13.20;;
84495;SDS011;74855;51.206;17.408;2023-12-14T04:19:26;28.90;;;12.05;;
84495;SDS011;74855;51.206;17.408;2023-12-14T04:24:23;25.80;;;11.53;;
84495;SDS011;74855;51.206;17.408;2023-12-14T04:29:18;27.48;;;10.95;;
84495;SDS011;74855;51.206;17.408;2023-12-14T04:34:13;26.17;;;11.35;;
84495;SDS011;74855;51.206;17.408;2023-12-14T04:39:09;27.20;;;12.18;;
84495;SDS011;74855;51.206;17.408;2023-12-14T04:44:06;29.55;;;13.07;;
84495;SDS011;74855;51.206;17.408;2023-12-14T04:49:01;31.40;;;13.30;;
84495;SDS011;74855;51.206;17.408;2023-12-14T04:53:57;25.83;;;11.77;;
84495;SDS011;74855;51.206;17.408;2023-12-14T04:58:52;24.07;;;11.07;;
84495;SDS011;74855;51.206;17.408;2023-12-14T05:03:49;26.60;;;11.33;;
84495;SDS011;74855;51.206;17.408;2023-12-14T05:08:44;29.30;;;12.70;;
84495;SDS011;74855;51.206;17.408;2023-12-14T05:13:39;26.93;;;12.50;;
84495;SDS011;74855;51.206;17.408;2023-12-14T05:18:35;28.47;;;12.97;;
84495;SDS011;74855;51.206;17.408;2023-12-14T05:23:31;27.20;;;12.17;;
84495;SDS011;74855;51.206;17.408;2023-12-14T05:28:28;26.90;;;12.02;;
84495;SDS011;74855;51.206;17.408;2023-12-14T05:33:23;32.95;;;12.65;;
84495;SDS011;74855;51.206;17.408;2023-12-14T05:38:18;28.30;;;12.10;;
84495;SDS011;74855;51.206;17.408;2023-12-14T05:43:15;34.53;;;14.27;;
84495;SDS011;74855;51.206;17.408;2023-12-14T05:48:11;27.83;;;12.93;;
84495;SDS011;74855;51.206;17.408;2023-12-14T05:53:06;33.67;;;13.03;;
84495;SDS011;74855;51.206;17.408;2023-12-14T05:58:01;32.13;;;13.35;;
84495;SDS011;74855;51.206;17.408;2023-12-14T06:02:59;26.73;;;11.50;;
84495;SDS011;74855;51.206;17.408;2023-12-14T06:07:54;28.65;;;12.65;;
84495;SDS011;74855;51.206;17.408;2023-12-14T06:12:50;30.63;;;13.73;;
84495;SDS011;74855;51.206;17.408;2023-12-14T06:17:45;28.20;;;12.30;;
84495;SDS011;74855;51.206;17.408;2023-12-14T06:22:42;30.57;;;13.53;;
84495;SDS011;74855;51.206;17.408;2023-12-14T06:27:37;25.58;;;12.23;;
84495;SDS011;74855;51.206;17.408;2023-12-14T06:32:32;30.60;;;12.17;;
84495;SDS011;74855;51.206;17.408;2023-12-14T06:37:29;24.07;;;10.33;;
84495;SDS011;74855;51.206;17.408;2023-12-14T06:42:27;26.27;;;10.27;;
84495;SDS011;74855;51.206;17.408;2023-12-14T06:47:23;24.50;;;11.95;;
84495;SDS011;74855;51.206;17.408;2023-12-14T06:52:18;28.20;;;10.97;;
84495;SDS011;74855;51.206;17.408;2023-12-14T06:57:13;26.53;;;11.07;;
84495;SDS011;74855;51.206;17.408;2023-12-14T07:02:10;28.20;;;10.73;;
84495;SDS011;74855;51.206;17.408;2023-12-14T07:07:05;30.77;;;13.15;;
84495;SDS011;74855;51.206;17.408;2023-12-14T07:12:01;30.30;;;12.47;;
84495;SDS011;74855;51.206;17.408;2023-12-14T07:16:59;27.40;;;11.43;;
84495;SDS011;74855;51.206;17.408;2023-12-14T07:21:56;29.98;;;12.68;;
84495;SDS011;74855;51.206;17.408;2023-12-14T11:13:36;21.15;;;12.50;;
84495;SDS011;74855;51.206;17.408;2023-12-14T11:20:50;16.65;;;9.90;;
84495;SDS011;74855;51.206;17.408;2023-12-14T11:36:59;12.85;;;6.43;;
84495;SDS011;74855;51.206;17.408;2023-12-14T11:42:00;11.80;;;6.75;;
84495;SDS011;74855;51.206;17.408;2023-12-14T13:30:03;75.45;;;26.23;;
84495;SDS011;74855;51.206;17.408;2023-12-14T13:35:03;79.78;;;31.10;;
84495;SDS011;74855;51.206;17.408;2023-12-14T13:42:51;70.18;;;31.50;;
84495;SDS011;74855;51.206;17.408;2023-12-14T13:48:41;43.13;;;25.70;;
84495;SDS011;74855;51.206;17.408;2023-12-14T13:53:36;40.85;;;20.88;;
84495;SDS011;74855;51.206;17.408;2023-12-14T13:58:31;24.23;;;11.18;;
84495;SDS011;74855;51.206;17.408;2023-12-14T14:03:27;36.43;;;17.90;;
84495;SDS011;74855;51.206;17.408;2023-12-14T14:08:23;34.70;;;15.70;;
84495;SDS011;74855;51.206;17.408;2023-12-14T14:13:19;32.50;;;14.98;;
84495;SDS011;74855;51.206;17.408;2023-12-14T14:18:15;35.10;;;14.60;;
84495;SDS011;74855;51.206;17.408;2023-12-14T14:23:11;39.13;;;19.65;;
84495;SDS011;74855;51.206;17.408;2023-12-14T14:28:07;38.63;;;16.37;;
84495;SDS011;74855;51.206;17.408;2023-12-14T14:38:34;43.10;;;18.35;;
84495;SDS011;74855;51.206;17.408;2023-12-14T14:43:30;32.13;;;15.32;;
84495;SDS011;74855;51.206;17.408;2023-12-14T14:48:25;36.53;;;16.40;;
84495;SDS011;74855;51.206;17.408;2023-12-14T14:53:20;40.17;;;15.90;;
84495;SDS011;74855;51.206;17.408;2023-12-14T14:58:17;37.87;;;20.10;;
84495;SDS011;74855;51.206;17.408;2023-12-14T15:03:12;35.05;;;16.25;;
84495;SDS011;74855;51.206;17.408;2023-12-14T15:08:08;28.00;;;13.50;;
84495;SDS011;74855;51.206;17.408;2023-12-14T15:13:05;26.83;;;12.93;;
84495;SDS011;74855;51.206;17.408;2023-12-14T15:18:02;30.80;;;15.57;;
84495;SDS011;74855;51.206;17.408;2023-12-14T15:22:57;24.50;;;12.10;;
84495;SDS011;74855;51.206;17.408;2023-12-14T15:27:53;28.63;;;13.38;;
84495;SDS011;74855;51.206;17.408;2023-12-14T15:32:48;28.50;;;13.65;;
84495;SDS011;74855;51.206;17.408;2023-12-14T15:37:45;23.83;;;10.63;;
84495;SDS011;74855;51.206;17.408;2023-12-14T15:42:40;28.52;;;13.35;;
84495;SDS011;74855;51.206;17.408;2023-12-14T15:47:36;21.00;;;9.90;;
84495;SDS011;74855;51.206;17.408;2023-12-14T15:52:31;25.27;;;11.73;;
84495;SDS011;74855;51.206;17.408;2023-12-14T15:57:28;25.00;;;12.13;;
84495;SDS011;74855;51.206;17.408;2023-12-14T16:02:23;22.55;;;11.38;;
84495;SDS011;74855;51.206;17.408;2023-12-14T16:07:19;23.33;;;11.10;;
84495;SDS011;74855;51.206;17.408;2023-12-14T16:12:14;23.83;;;10.67;;
84495;SDS011;74855;51.206;17.408;2023-12-14T16:17:11;22.40;;;10.60;;
84495;SDS011;74855;51.206;17.408;2023-12-14T16:22:06;21.27;;;10.73;;
84495;SDS011;74855;51.206;17.408;2023-12-14T16:27:01;22.93;;;10.13;;
84495;SDS011;74855;51.206;17.408;2023-12-14T16:31:57;21.87;;;11.40;;
84495;SDS011;74855;51.206;17.408;2023-12-14T16:36:53;37.07;;;16.77;;
84495;SDS011;74855;51.206;17.408;2023-12-14T16:41:49;35.40;;;16.25;;
84495;SDS011;74855;51.206;17.408;2023-12-14T16:46:44;37.95;;;17.83;;
84495;SDS011;74855;51.206;17.408;2023-12-14T16:56:36;34.42;;;14.10;;
84495;SDS011;74855;51.206;17.408;2023-12-14T17:01:31;35.47;;;16.35;;
84495;SDS011;74855;51.206;17.408;2023-12-14T17:06:26;35.43;;;15.07;;
84495;SDS011;74855;51.206;17.408;2023-12-14T17:11:22;31.90;;;14.83;;
84495;SDS011;74855;51.206;17.408;2023-12-14T17:16:19;27.13;;;12.87;;
84495;SDS011;74855;51.206;17.408;2023-12-14T17:21:17;35.22;;;16.15;;
84495;SDS011;74855;51.206;17.408;2023-12-14T17:26:13;28.88;;;13.32;;
84495;SDS011;74855;51.206;17.408;2023-12-14T17:31:08;27.77;;;13.83;;
84495;SDS011;74855;51.206;17.408;2023-12-14T17:36:05;23.63;;;12.30;;
84495;SDS011;74855;51.206;17.408;2023-12-14T17:41:01;34.70;;;17.13;;
84495;SDS011;74855;51.206;17.408;2023-12-14T17:50:51;29.38;;;14.00;;
84495;SDS011;74855;51.206;17.408;2023-12-14T17:55:48;27.77;;;13.17;;
84495;SDS011;74855;51.206;17.408;2023-12-14T18:00:43;24.63;;;12.70;;
84495;SDS011;74855;51.206;17.408;2023-12-14T18:10:36;36.58;;;17.60;;
84495;SDS011;74855;51.206;17.408;2023-12-14T18:15:33;40.92;;;18.50;;
84495;SDS011;74855;51.206;17.408;2023-12-14T18:20:28;34.67;;;15.48;;
84495;SDS011;74855;51.206;17.408;2023-12-14T18:30:19;25.35;;;13.25;;
84495;SDS011;74855;51.206;17.408;2023-12-14T18:38:19;23.02;;;11.48;;
84495;SDS011;74855;51.206;17.408;2023-12-14T18:43:15;25.77;;;12.80;;
84495;SDS011;74855;51.206;17.408;2023-12-14T18:48:11;27.13;;;12.60;;
84495;SDS011;74855;51.206;17.408;2023-12-14T18:53:06;24.77;;;12.70;;
84495;SDS011;74855;51.206;17.408;2023-12-14T19:03:00;22.27;;;11.80;;
84495;SDS011;74855;51.206;17.408;2023-12-14T19:07:56;26.15;;;13.43;;
84495;SDS011;74855;51.206;17.408;2023-12-14T19:17:46;20.55;;;10.63;;
84495;SDS011;74855;51.206;17.408;2023-12-14T19:22:43;21.10;;;10.77;;
84495;SDS011;74855;51.206;17.408;2023-12-14T19:27:39;19.17;;;10.68;;
84495;SDS011;74855;51.206;17.408;2023-12-14T19:37:29;16.80;;;8.52;;
84495;SDS011;74855;51.206;17.408;2023-12-14T19:47:21;20.50;;;9.15;;
84495;SDS011;74855;51.206;17.408;2023-12-14T19:52:16;17.55;;;8.80;;
84495;SDS011;74855;51.206;17.408;2023-12-14T20:02:07;18.00;;;9.25;;
84495;SDS011;74855;51.206;17.408;2023-12-14T20:11:58;13.85;;;7.47;;
84495;SDS011;74855;51.206;17.408;2023-12-14T20:16:54;20.63;;;10.38;;
84495;SDS011;74855;51.206;17.408;2023-12-14T20:26:44;22.77;;;9.43;;
84495;SDS011;74855;51.206;17.408;2023-12-14T20:31:41;19.05;;;9.63;;
84495;SDS011;74855;51.206;17.408;2023-12-14T20:36:36;21.58;;;10.43;;
84495;SDS011;74855;51.206;17.408;2023-12-14T20:46:26;19.85;;;9.02;;
84495;SDS011;74855;51.206;17.408;2023-12-14T20:56:18;19.13;;;7.88;;
84495;SDS011;74855;51.206;17.408;2023-12-14T21:01:13;19.92;;;8.98;;
84495;SDS011;74855;51.206;17.408;2023-12-14T21:11:04;17.63;;;9.18;;
84495;SDS011;74855;51.206;17.408;2023-12-14T21:20:55;19.60;;;8.65;;
84495;SDS011;74855;51.206;17.408;2023-12-14T21:25:51;17.42;;;8.15;;
84495;SDS011;74855;51.206;17.408;2023-12-14T21:35:41;18.33;;;8.93;;
84495;SDS011;74855;51.206;17.408;2023-12-14T21:40:39;24.60;;;10.85;;
84495;SDS011;74855;51.206;17.408;2023-12-14T21:45:34;53.03;;;19.90;;
84495;SDS011;74855;51.206;17.408;2023-12-14T21:50:29;33.85;;;15.45;;
84495;SDS011;74855;51.206;17.408;2023-12-14T21:55:25;23.73;;;10.60;;
84495;SDS011;74855;51.206;17.408;2023-12-14T22:05:17;21.23;;;10.20;;
84495;SDS011;74855;51.206;17.408;2023-12-14T22:10:12;27.80;;;12.68;;
84495;SDS011;74855;51.206;17.408;2023-12-14T22:15:08;27.13;;;11.27;;
84495;SDS011;74855;51.206;17.408;2023-12-14T22:20:04;185.40;;;48.90;;
84495;SDS011;74855;51.206;17.408;2023-12-14T22:25:00;254.65;;;62.25;;
84495;SDS011;74855;51.206;17.408;2023-12-14T22:29:57;244.55;;;71.88;;
84495;SDS011;74855;51.206;17.408;2023-12-14T22:34:52;153.80;;;52.90;;
84495;SDS011;74855;51.206;17.408;2023-12-14T22:39:47;69.13;;;25.27;;
84495;SDS011;74855;51.206;17.408;2023-12-14T22:44:44;39.97;;;16.13;;
84495;SDS011;74855;51.206;17.408;2023-12-14T22:49:40;57.92;;;25.08;;
84495;SDS011;74855;51.206;17.408;2023-12-14T22:54:37;46.77;;;20.33;;
84495;SDS011;74855;51.206;17.408;2023-12-14T22:59:32;41.40;;;18.35;;
84495;SDS011;74855;51.206;17.408;2023-12-14T23:04:29;65.30;;;20.43;;
84495;SDS011;74855;51.206;17.408;2023-12-14T23:09:25;43.42;;;17.77;;
84495;SDS011;74855;51.206;17.408;2023-12-14T23:14:20;28.37;;;11.97;;
84495;SDS011;74855;51.206;17.408;2023-12-14T23:19:15;24.63;;;11.67;;
84495;SDS011;74855;51.206;17.408;2023-12-14T23:24:12;18.20;;;8.77;;
84495;SDS011;74855;51.206;17.408;2023-12-14T23:29:07;20.92;;;10.38;;
84495;SDS011;74855;51.206;17.408;2023-12-14T23:34:03;21.93;;;9.40;;
84495;SDS011;74855;51.206;17.408;2023-12-14T23:38:58;21.73;;;9.18;;
84495;SDS011;74855;51.206;17.408;2023-12-14T23:43:55;23.67;;;10.33;;
84495;SDS011;74855;51.206;17.408;2023-12-14T23:48:50;18.23;;;9.98;;
84495;SDS011;74855;51.206;17.408;2023-12-14T23:53:46;22.70;;;10.70;;
84495;SDS011;74855;51.206;17.408;2023-12-14T23:58:42;17.52;;;8.45;;
